createdAt,value
2022-08-01T00:00:06.696Z,0.00
2022-08-01T00:01:06.658Z,0.00
2022-08-01T00:02:06.976Z,0.00
2022-08-01T00:03:06.585Z,0.00
2022-08-01T00:04:06.549Z,0.00
2022-08-01T00:05:06.513Z,0.00
2022-08-01T00:06:06.473Z,0.00
2022-08-01T00:07:06.442Z,0.00
2022-08-01T00:08:06.413Z,0.00
2022-08-01T00:09:06.366Z,0.00
2022-08-01T00:10:06.357Z,0.00
2022-08-01T00:11:06.295Z,0.00
2022-08-01T00:12:06.254Z,0.00
2022-08-01T00:13:06.221Z,0.00
2022-08-01T00:14:06.183Z,0.00
2022-08-01T00:15:06.154Z,0.00
2022-08-01T00:16:06.118Z,0.00
2022-08-01T00:17:07.536Z,0.00
2022-08-01T00:18:06.035Z,0.00
2022-08-01T00:19:05.999Z,0.00
2022-08-01T00:20:05.962Z,0.00
2022-08-01T00:21:05.927Z,0.00
2022-08-01T00:22:06.261Z,0.00
2022-08-01T00:23:05.857Z,0.00
2022-08-01T00:24:05.813Z,0.00
2022-08-01T00:25:05.779Z,0.00
2022-08-01T00:26:05.744Z,0.00
2022-08-01T00:27:05.717Z,0.00
2022-08-01T00:28:05.670Z,0.00
2022-08-01T00:29:06.590Z,0.00
2022-08-01T00:30:10.687Z,0.00
2022-08-01T00:31:05.559Z,0.00
2022-08-01T00:32:05.918Z,0.00
2022-08-01T00:33:05.487Z,0.00
2022-08-01T00:34:05.451Z,0.00
2022-08-01T00:35:05.416Z,0.00
2022-08-01T00:36:05.386Z,0.00
2022-08-01T00:37:05.341Z,0.00
2022-08-01T00:38:05.318Z,0.00
2022-08-01T00:39:05.275Z,0.00
2022-08-01T00:40:05.241Z,0.00
2022-08-01T00:41:05.194Z,0.00
2022-08-01T00:42:05.548Z,0.00
2022-08-01T00:43:05.137Z,0.00
2022-08-01T00:44:05.085Z,0.00
2022-08-01T00:45:05.048Z,0.00
2022-08-01T00:46:05.023Z,0.00
2022-08-01T00:47:04.974Z,0.00
2022-08-01T00:48:04.937Z,0.00
2022-08-01T00:49:04.931Z,0.00
2022-08-01T00:50:04.874Z,0.00
2022-08-01T00:51:04.828Z,0.00
2022-08-01T00:52:05.110Z,0.00
2022-08-01T00:53:04.756Z,0.00
2022-08-01T00:54:04.711Z,0.00
2022-08-01T00:55:04.697Z,0.00
2022-08-01T00:56:04.646Z,0.00
2022-08-01T00:57:04.626Z,0.00
2022-08-01T00:58:06.092Z,0.00
2022-08-01T00:59:04.537Z,0.00
2022-08-01T01:00:04.496Z,0.00
2022-08-01T01:01:04.510Z,0.00
2022-08-01T01:02:04.769Z,0.00
2022-08-01T01:03:04.412Z,0.00
2022-08-01T01:04:08.519Z,0.00
2022-08-01T01:05:04.317Z,0.00
2022-08-01T01:06:04.277Z,0.00
2022-08-01T01:07:04.243Z,0.00
2022-08-01T01:08:04.202Z,0.00
2022-08-01T01:09:04.184Z,0.00
2022-08-01T01:10:04.136Z,0.00
2022-08-01T01:11:04.094Z,0.00
2022-08-01T01:12:04.609Z,0.00
2022-08-01T01:13:04.021Z,0.00
2022-08-01T01:14:03.983Z,0.00
2022-08-01T01:15:03.971Z,0.00
2022-08-01T01:16:03.910Z,0.00
2022-08-01T01:17:03.878Z,0.00
2022-08-01T01:18:03.843Z,0.00
2022-08-01T01:19:03.809Z,0.00
2022-08-01T01:20:03.763Z,0.00
2022-08-01T01:21:03.752Z,0.00
2022-08-01T01:22:03.960Z,0.00
2022-08-01T01:23:03.658Z,0.00
2022-08-01T01:24:03.614Z,0.00
2022-08-01T01:25:03.583Z,0.00
2022-08-01T01:26:03.543Z,0.00
2022-08-01T01:27:03.520Z,0.00
2022-08-01T01:28:03.489Z,0.00
2022-08-01T01:29:03.432Z,0.00
2022-08-01T01:30:03.399Z,0.00
2022-08-01T01:31:03.361Z,0.00
2022-08-01T01:32:03.682Z,0.00
2022-08-01T01:33:03.285Z,0.00
2022-08-01T01:34:03.258Z,0.00
2022-08-01T01:35:03.212Z,0.00
2022-08-01T01:36:03.178Z,0.00
2022-08-01T01:37:03.137Z,0.00
2022-08-01T01:38:03.101Z,0.00
2022-08-01T01:39:03.078Z,0.00
2022-08-01T01:40:03.026Z,0.00
2022-08-01T01:41:02.992Z,0.00
2022-08-01T01:42:03.195Z,0.00
2022-08-01T01:43:02.919Z,0.00
2022-08-01T01:44:02.879Z,0.00
2022-08-01T01:45:02.870Z,0.00
2022-08-01T01:46:02.821Z,0.00
2022-08-01T01:47:02.790Z,0.00
2022-08-01T01:48:02.738Z,0.00
2022-08-01T01:49:02.759Z,0.00
2022-08-01T01:50:02.669Z,0.00
2022-08-01T01:51:02.637Z,0.00
2022-08-01T01:52:03.167Z,0.00
2022-08-01T01:53:02.553Z,0.00
2022-08-01T01:54:02.514Z,0.00
2022-08-01T01:55:02.490Z,0.00
2022-08-01T01:56:02.440Z,0.00
2022-08-01T01:57:02.416Z,0.00
2022-08-01T01:58:02.366Z,0.00
2022-08-01T01:59:02.331Z,0.00
2022-08-01T02:00:02.298Z,0.00
2022-08-01T02:01:02.885Z,0.00
2022-08-01T02:02:05.972Z,0.00
2022-08-01T02:03:02.254Z,0.00
2022-08-01T02:04:02.148Z,0.00
2022-08-01T02:05:02.122Z,0.00
2022-08-01T02:06:02.076Z,0.00
2022-08-01T02:07:02.039Z,0.00
2022-08-01T02:08:01.998Z,0.00
2022-08-01T02:09:01.978Z,0.00
2022-08-01T02:10:01.933Z,0.00
2022-08-01T02:11:01.894Z,0.00
2022-08-01T02:12:08.133Z,0.00
2022-08-01T02:13:01.820Z,0.00
2022-08-01T02:14:01.780Z,0.00
2022-08-01T02:15:01.762Z,0.00
2022-08-01T02:16:01.708Z,0.00
2022-08-01T02:17:01.672Z,0.00
2022-08-01T02:18:01.633Z,0.00
2022-08-01T02:19:01.596Z,0.00
2022-08-01T02:20:01.576Z,0.00
2022-08-01T02:21:01.523Z,0.00
2022-08-01T02:22:01.488Z,0.00
2022-08-01T02:23:01.458Z,0.00
2022-08-01T02:24:05.726Z,0.00
2022-08-01T02:25:01.378Z,0.00
2022-08-01T02:26:10.872Z,0.00
2022-08-01T02:27:01.304Z,0.00
2022-08-01T02:28:01.267Z,0.00
2022-08-01T02:29:01.244Z,0.00
2022-08-01T02:30:01.204Z,0.00
2022-08-01T02:31:01.158Z,0.00
2022-08-01T02:32:01.139Z,0.00
2022-08-01T02:33:01.086Z,0.00
2022-08-01T02:34:01.046Z,0.00
2022-08-01T02:35:01.012Z,0.00
2022-08-01T02:36:30.741Z,0.00
2022-08-01T02:37:00.952Z,0.00
2022-08-01T02:38:00.916Z,0.00
2022-08-01T02:39:00.877Z,0.00
2022-08-01T02:40:00.823Z,0.00
2022-08-01T02:41:00.794Z,0.00
2022-08-01T02:42:00.754Z,0.00
2022-08-01T02:43:00.721Z,0.00
2022-08-01T02:44:00.691Z,0.00
2022-08-01T02:45:00.644Z,0.00
2022-08-01T02:46:00.612Z,0.00
2022-08-01T02:47:00.584Z,0.00
2022-08-01T02:48:00.534Z,0.00
2022-08-01T02:49:00.623Z,0.00
2022-08-01T02:50:00.472Z,0.00
2022-08-01T02:51:00.427Z,0.00
2022-08-01T02:52:00.394Z,0.00
2022-08-01T02:53:00.352Z,0.00
2022-08-01T02:54:00.314Z,0.00
2022-08-01T02:55:00.293Z,0.00
2022-08-01T02:56:00.242Z,0.00
2022-08-01T02:57:00.206Z,0.00
2022-08-01T02:58:00.843Z,0.00
2022-08-01T02:59:00.137Z,0.00
2022-08-01T03:00:00.127Z,0.00
2022-08-01T03:01:00.072Z,0.00
2022-08-01T03:02:00.643Z,0.00
2022-08-01T03:02:59.997Z,0.00
2022-08-01T03:03:59.953Z,0.00
2022-08-01T03:04:59.917Z,0.00
2022-08-01T03:05:59.874Z,0.00
2022-08-01T03:06:59.843Z,0.00
2022-08-01T03:08:03.811Z,0.00
2022-08-01T03:08:59.778Z,0.00
2022-08-01T03:09:59.731Z,0.00
2022-08-01T03:10:59.694Z,0.00
2022-08-01T03:11:59.665Z,0.00
2022-08-01T03:12:59.623Z,0.00
2022-08-01T03:13:59.582Z,0.00
2022-08-01T03:15:08.418Z,0.00
2022-08-01T03:15:59.508Z,0.00
2022-08-01T03:16:59.474Z,0.00
2022-08-01T03:17:59.436Z,0.00
2022-08-01T03:18:59.403Z,0.00
2022-08-01T03:19:59.368Z,0.00
2022-08-01T03:20:59.350Z,0.00
2022-08-01T03:21:59.302Z,0.00
2022-08-01T03:22:59.256Z,0.00
2022-08-01T03:23:59.215Z,0.00
2022-08-01T03:24:59.180Z,0.00
2022-08-01T03:25:59.145Z,0.00
2022-08-01T03:26:59.109Z,0.00
2022-08-01T03:27:59.077Z,4.00
2022-08-01T03:28:59.034Z,4.00
2022-08-01T03:29:59.000Z,0.00
2022-08-01T03:30:58.959Z,0.00
2022-08-01T03:31:58.935Z,0.00
2022-08-01T03:32:58.885Z,0.00
2022-08-01T03:34:01.757Z,4.00
2022-08-01T03:34:58.812Z,4.00
2022-08-01T03:35:58.773Z,8.00
2022-08-01T03:36:58.742Z,8.00
2022-08-01T03:38:16.256Z,8.00
2022-08-01T03:38:58.664Z,8.00
2022-08-01T03:39:58.630Z,12.00
2022-08-01T03:40:58.593Z,12.00
2022-08-01T03:41:58.555Z,12.00
2022-08-01T03:42:58.522Z,16.00
2022-08-01T03:43:58.669Z,16.00
2022-08-01T03:44:58.446Z,16.00
2022-08-01T03:45:58.410Z,16.00
2022-08-01T03:46:58.375Z,20.00
2022-08-01T03:47:58.348Z,20.00
2022-08-01T03:48:58.330Z,20.00
2022-08-01T03:49:58.266Z,20.00
2022-08-01T03:50:58.229Z,20.00
2022-08-01T03:51:58.189Z,28.00
2022-08-01T03:52:58.155Z,28.00
2022-08-01T03:53:58.138Z,36.00
2022-08-01T03:54:58.087Z,48.00
2022-08-01T03:55:58.048Z,56.00
2022-08-01T03:56:58.006Z,60.00
2022-08-01T03:57:57.971Z,52.00
2022-08-01T03:58:57.934Z,56.00
2022-08-01T03:59:57.906Z,56.00
2022-08-01T04:00:57.910Z,44.00
2022-08-01T04:01:57.829Z,36.00
2022-08-01T04:02:57.786Z,32.00
2022-08-01T04:03:57.751Z,40.00
2022-08-01T04:04:57.712Z,56.00
2022-08-01T04:05:57.713Z,68.00
2022-08-01T04:06:57.641Z,84.00
2022-08-01T04:07:57.604Z,100.00
2022-08-01T04:08:57.567Z,124.00
2022-08-01T04:09:57.533Z,112.00
2022-08-01T04:10:57.511Z,92.00
2022-08-01T04:11:57.457Z,112.00
2022-08-01T04:12:57.422Z,164.00
2022-08-01T04:13:57.740Z,176.00
2022-08-01T04:14:57.351Z,176.00
2022-08-01T04:15:57.317Z,180.00
2022-08-01T04:16:57.300Z,204.00
2022-08-01T04:17:57.240Z,272.00
2022-08-01T04:18:57.203Z,348.00
2022-08-01T04:19:57.164Z,380.00
2022-08-01T04:20:57.128Z,352.00
2022-08-01T04:21:57.093Z,348.00
2022-08-01T04:22:57.081Z,376.00
2022-08-01T04:23:57.021Z,396.00
2022-08-01T04:24:57.250Z,392.00
2022-08-01T04:25:56.949Z,448.00
2022-08-01T04:26:56.910Z,564.00
2022-08-01T04:27:56.887Z,584.00
2022-08-01T04:28:56.846Z,600.00
2022-08-01T04:29:56.803Z,644.00
2022-08-01T04:31:01.588Z,708.00
2022-08-01T04:31:56.727Z,704.00
2022-08-01T04:32:56.705Z,772.00
2022-08-01T04:33:56.653Z,896.00
2022-08-01T04:34:56.627Z,992.00
2022-08-01T04:36:01.503Z,1080.00
2022-08-01T04:36:56.541Z,1200.00
2022-08-01T04:37:56.506Z,1364.00
2022-08-01T04:38:56.466Z,1512.00
2022-08-01T04:39:56.432Z,1396.00
2022-08-01T04:40:56.409Z,1364.00
2022-08-01T04:41:56.359Z,1476.00
2022-08-01T04:42:56.334Z,1468.00
2022-08-01T04:43:56.297Z,1576.00
2022-08-01T04:44:56.248Z,1676.00
2022-08-01T04:45:56.212Z,1760.00
2022-08-01T04:46:56.174Z,1796.00
2022-08-01T04:47:56.137Z,1824.00
2022-08-01T04:48:56.160Z,1940.00
2022-08-01T04:49:56.076Z,1944.00
2022-08-01T04:50:56.027Z,1792.00
2022-08-01T04:51:55.992Z,1608.00
2022-08-01T04:52:55.953Z,1512.00
2022-08-01T04:53:55.917Z,1484.00
2022-08-01T04:54:55.880Z,1516.00
2022-08-01T04:55:55.855Z,1604.00
2022-08-01T04:56:55.806Z,1588.00
2022-08-01T04:57:55.771Z,1560.00
2022-08-01T04:58:55.734Z,1504.00
2022-08-01T04:59:55.698Z,1376.00
2022-08-01T05:00:55.686Z,1196.00
2022-08-01T05:01:55.637Z,1068.00
2022-08-01T05:02:55.611Z,1068.00
2022-08-01T05:03:55.553Z,1116.00
2022-08-01T05:04:55.516Z,1084.00
2022-08-01T05:05:55.484Z,1068.00
2022-08-01T05:06:55.444Z,1048.00
2022-08-01T05:07:55.418Z,1128.00
2022-08-01T05:08:55.371Z,1108.00
2022-08-01T05:09:55.332Z,924.00
2022-08-01T05:10:55.296Z,736.00
2022-08-01T05:11:55.271Z,760.00
2022-08-01T05:12:55.222Z,876.00
2022-08-01T05:13:55.209Z,932.00
2022-08-01T05:14:55.151Z,1044.00
2022-08-01T05:15:55.119Z,1156.00
2022-08-01T05:16:55.077Z,1260.00
2022-08-01T05:17:55.043Z,1252.00
2022-08-01T05:18:55.005Z,1396.00
2022-08-01T05:19:54.977Z,1344.00
2022-08-01T05:20:54.932Z,1464.00
2022-08-01T05:21:54.894Z,1596.00
2022-08-01T05:22:54.861Z,1580.00
2022-08-01T05:23:54.823Z,1648.00
2022-08-01T05:24:54.796Z,1620.00
2022-08-01T05:25:57.350Z,1552.00
2022-08-01T05:26:54.714Z,1636.00
2022-08-01T05:27:54.675Z,1704.00
2022-08-01T05:28:55.388Z,1692.00
2022-08-01T05:29:54.602Z,1740.00
2022-08-01T05:30:54.564Z,1860.00
2022-08-01T05:31:54.538Z,2112.00
2022-08-01T05:32:54.504Z,2608.00
2022-08-01T05:33:54.466Z,3048.00
2022-08-01T05:34:54.422Z,3404.00
2022-08-01T05:35:54.390Z,3148.00
2022-08-01T05:36:57.701Z,2444.00
2022-08-01T05:37:54.339Z,2404.00
2022-08-01T05:38:54.273Z,2848.00
2022-08-01T05:39:54.238Z,3264.00
2022-08-01T05:40:54.202Z,3988.00
2022-08-01T05:41:54.170Z,4952.00
2022-08-01T05:42:54.137Z,5464.00
2022-08-01T05:43:54.103Z,5464.00
2022-08-01T05:44:54.056Z,4916.00
2022-08-01T05:45:54.020Z,4612.00
2022-08-01T05:46:53.982Z,4884.00
2022-08-01T05:47:53.950Z,4956.00
2022-08-01T05:48:53.961Z,4628.00
2022-08-01T05:49:53.902Z,3984.00
2022-08-01T05:50:58.069Z,4232.00
2022-08-01T05:51:53.807Z,4592.00
2022-08-01T05:52:53.773Z,4220.00
2022-08-01T05:53:53.742Z,3368.00
2022-08-01T05:54:53.707Z,3404.00
2022-08-01T05:55:53.657Z,3736.00
2022-08-01T05:56:53.628Z,4260.00
2022-08-01T05:57:53.602Z,5264.00
2022-08-01T05:58:53.548Z,7120.00
2022-08-01T05:59:53.512Z,7768.00
2022-08-01T06:00:53.477Z,7124.00
2022-08-01T06:01:53.519Z,7628.00
2022-08-01T06:02:53.405Z,6664.00
2022-08-01T06:03:53.387Z,5828.00
2022-08-01T06:04:53.333Z,5340.00
2022-08-01T06:05:53.302Z,4924.00
2022-08-01T06:06:53.260Z,5408.00
2022-08-01T06:07:53.248Z,5532.00
2022-08-01T06:08:53.187Z,5260.00
2022-08-01T06:09:53.152Z,5688.00
2022-08-01T06:10:53.116Z,5532.00
2022-08-01T06:11:53.077Z,5588.00
2022-08-01T06:12:53.045Z,5700.00
2022-08-01T06:13:53.025Z,5544.00
2022-08-01T06:14:52.977Z,5268.00
2022-08-01T06:15:52.955Z,4600.00
2022-08-01T06:16:52.908Z,4448.00
2022-08-01T06:17:52.888Z,4512.00
2022-08-01T06:18:56.526Z,4872.00
2022-08-01T06:19:52.796Z,4672.00
2022-08-01T06:20:52.755Z,4320.00
2022-08-01T06:21:52.731Z,4796.00
2022-08-01T06:22:52.808Z,5084.00
2022-08-01T06:23:52.674Z,5580.00
2022-08-01T06:24:52.630Z,6160.00
2022-08-01T06:25:52.578Z,7136.00
2022-08-01T06:26:52.548Z,7788.00
2022-08-01T06:27:52.511Z,7684.00
2022-08-01T06:28:52.494Z,6744.00
2022-08-01T06:29:54.101Z,7004.00
2022-08-01T06:33:19.581Z,9124.00
2022-08-01T06:34:19.539Z,9592.00
2022-08-01T06:35:19.539Z,10556.00
2022-08-01T06:36:19.466Z,11572.00
2022-08-01T06:37:19.432Z,12420.00
2022-08-01T06:38:19.413Z,13960.00
2022-08-01T06:39:19.358Z,15528.00
2022-08-01T06:40:19.329Z,15188.00
2022-08-01T06:41:19.301Z,13188.00
2022-08-01T06:42:19.255Z,9740.00
2022-08-01T06:43:19.219Z,7740.00
2022-08-01T06:44:19.181Z,7096.00
2022-08-01T06:45:19.166Z,7948.00
2022-08-01T06:46:19.150Z,8468.00
2022-08-01T06:47:19.080Z,8600.00
2022-08-01T06:48:19.041Z,9248.00
2022-08-01T06:49:19.056Z,10264.00
2022-08-01T06:50:18.970Z,11552.00
2022-08-01T06:51:18.935Z,13068.00
2022-08-01T06:52:18.911Z,15508.00
2022-08-01T06:53:18.866Z,18304.00
2022-08-01T06:54:18.829Z,21376.00
2022-08-01T06:55:18.794Z,21536.00
2022-08-01T06:56:18.763Z,23968.00
2022-08-01T06:57:18.726Z,20320.00
2022-08-01T06:58:18.710Z,19232.00
2022-08-01T06:59:18.671Z,19072.00
2022-08-01T07:00:18.619Z,20000.00
2022-08-01T07:01:18.694Z,20288.00
2022-08-01T07:02:18.553Z,26752.00
2022-08-01T07:03:18.513Z,23008.00
2022-08-01T07:04:18.485Z,15152.00
2022-08-01T07:05:18.461Z,12432.00
2022-08-01T07:06:18.441Z,12104.00
2022-08-01T07:07:18.422Z,26048.00
2022-08-01T07:08:18.345Z,24960.00
2022-08-01T07:09:18.310Z,19296.00
2022-08-01T07:10:18.277Z,13740.00
2022-08-01T07:11:18.258Z,27616.00
2022-08-01T07:12:18.220Z,18176.00
2022-08-01T07:13:18.176Z,21120.00
2022-08-01T07:14:18.139Z,18496.00
2022-08-01T07:15:18.108Z,19264.00
2022-08-01T07:16:18.073Z,18784.00
2022-08-01T07:17:18.059Z,19136.00
2022-08-01T07:18:18.005Z,20032.00
2022-08-01T07:19:17.985Z,19936.00
2022-08-01T07:20:17.941Z,19616.00
2022-08-01T07:21:40.666Z,31776.00
2022-08-01T07:22:23.617Z,17728.00
2022-08-01T07:23:17.843Z,16864.00
2022-08-01T07:24:19.496Z,15184.00
2022-08-01T07:25:18.042Z,18272.00
2022-08-01T07:26:17.741Z,19840.00
2022-08-01T07:27:25.608Z,21856.00
2022-08-01T07:28:17.675Z,29728.00
2022-08-01T07:29:17.643Z,21664.00
2022-08-01T07:30:17.609Z,18240.00
2022-08-01T07:31:17.590Z,27584.00
2022-08-01T07:32:17.544Z,25568.00
2022-08-01T07:33:17.510Z,33984.00
2022-08-01T07:34:17.476Z,22016.00
2022-08-01T07:35:17.448Z,18880.00
2022-08-01T07:36:17.419Z,17152.00
2022-08-01T07:37:17.389Z,15812.00
2022-08-01T07:38:17.345Z,15540.00
2022-08-01T07:39:17.327Z,15448.00
2022-08-01T07:40:17.281Z,15320.00
2022-08-01T07:41:17.252Z,14528.00
2022-08-01T07:42:17.232Z,14048.00
2022-08-01T07:43:17.186Z,14740.00
2022-08-01T07:44:17.162Z,15508.00
2022-08-01T07:45:17.120Z,15900.00
2022-08-01T07:46:17.098Z,15704.00
2022-08-01T07:47:17.051Z,15504.00
2022-08-01T07:48:17.018Z,15704.00
2022-08-01T07:49:17.038Z,17280.00
2022-08-01T07:50:16.951Z,19168.00
2022-08-01T07:51:16.929Z,20544.00
2022-08-01T07:52:17.038Z,21600.00
2022-08-01T07:53:16.856Z,20800.00
2022-08-01T07:54:16.823Z,22336.00
2022-08-01T07:55:16.942Z,20288.00
2022-08-01T07:56:16.757Z,21376.00
2022-08-01T07:57:16.736Z,21824.00
2022-08-01T07:58:16.689Z,22336.00
2022-08-01T07:59:17.489Z,26208.00
2022-08-01T08:00:16.622Z,21664.00
2022-08-01T08:01:16.591Z,22464.00
2022-08-01T08:02:16.611Z,19968.00
2022-08-01T08:03:16.532Z,18944.00
2022-08-01T08:04:16.491Z,18464.00
2022-08-01T08:05:16.456Z,17888.00
2022-08-01T08:06:16.422Z,19456.00
2022-08-01T08:07:16.396Z,21216.00
2022-08-01T08:08:16.358Z,22272.00
2022-08-01T08:09:16.333Z,22816.00
2022-08-01T08:10:16.290Z,21920.00
2022-08-01T08:11:16.474Z,19584.00
2022-08-01T08:12:16.226Z,18688.00
2022-08-01T08:13:16.200Z,19232.00
2022-08-01T08:14:16.172Z,20608.00
2022-08-01T08:15:16.160Z,21120.00
2022-08-01T08:16:16.093Z,22976.00
2022-08-01T08:17:16.062Z,24672.00
2022-08-01T08:18:16.062Z,22656.00
2022-08-01T08:19:16.004Z,20224.00
2022-08-01T08:20:15.965Z,18656.00
2022-08-01T08:21:15.957Z,16736.00
2022-08-01T08:22:15.901Z,18272.00
2022-08-01T08:23:15.866Z,19072.00
2022-08-01T08:24:15.834Z,26496.00
2022-08-01T08:25:15.802Z,36416.00
2022-08-01T08:26:15.778Z,39616.00
2022-08-01T08:27:15.742Z,36256.00
2022-08-01T08:28:15.706Z,31968.00
2022-08-01T08:29:15.673Z,27424.00
2022-08-01T08:30:15.883Z,24384.00
2022-08-01T08:31:25.242Z,26208.00
2022-08-01T08:32:15.586Z,20608.00
2022-08-01T08:33:15.542Z,21440.00
2022-08-01T08:34:15.510Z,17632.00
2022-08-01T08:35:22.947Z,17152.00
2022-08-01T08:36:15.445Z,15720.00
2022-08-01T08:37:15.483Z,14892.00
2022-08-01T08:38:15.401Z,15984.00
2022-08-01T08:39:15.353Z,19072.00
2022-08-01T08:40:15.319Z,21376.00
2022-08-01T08:41:20.666Z,21952.00
2022-08-01T08:42:15.257Z,21888.00
2022-08-01T08:43:15.227Z,22496.00
2022-08-01T08:44:15.200Z,23296.00
2022-08-01T08:45:15.171Z,20800.00
2022-08-01T08:46:15.126Z,19360.00
2022-08-01T08:47:19.750Z,19008.00
2022-08-01T08:48:15.427Z,20480.00
2022-08-01T08:49:15.204Z,20448.00
2022-08-01T08:50:15.038Z,33920.00
2022-08-01T08:51:14.972Z,30240.00
2022-08-01T08:52:14.933Z,21376.00
2022-08-01T08:53:18.592Z,21696.00
2022-08-01T08:54:15.071Z,27840.00
2022-08-01T08:55:15.031Z,37216.00
2022-08-01T08:56:14.804Z,32768.00
2022-08-01T08:57:14.777Z,30624.00
2022-08-01T08:58:14.741Z,35488.00
2022-08-01T08:59:14.718Z,39232.00
2022-08-01T09:00:14.677Z,39104.00
2022-08-01T09:01:14.673Z,23680.00
2022-08-01T09:02:14.909Z,21088.00
2022-08-01T09:03:14.650Z,18048.00
2022-08-01T09:04:14.550Z,14756.00
2022-08-01T09:05:19.245Z,13000.00
2022-08-01T09:06:14.500Z,12252.00
2022-08-01T09:07:14.462Z,12116.00
2022-08-01T09:08:14.423Z,12116.00
2022-08-01T09:09:14.393Z,12664.00
2022-08-01T09:10:14.363Z,11808.00
2022-08-01T09:11:22.602Z,10652.00
2022-08-01T09:12:14.321Z,12784.00
2022-08-01T09:13:14.268Z,12972.00
2022-08-01T09:14:14.698Z,17152.00
2022-08-01T09:15:23.588Z,34624.00
2022-08-01T09:16:14.175Z,34368.00
2022-08-01T09:17:14.145Z,22048.00
2022-08-01T09:18:14.107Z,22144.00
2022-08-01T09:19:15.992Z,21440.00
2022-08-01T09:20:14.057Z,24608.00
2022-08-01T09:21:14.010Z,16280.00
2022-08-01T09:22:13.982Z,16676.00
2022-08-01T09:23:13.948Z,19456.00
2022-08-01T09:24:13.914Z,20480.00
2022-08-01T09:25:13.885Z,19584.00
2022-08-01T09:26:13.857Z,17664.00
2022-08-01T09:27:13.819Z,14880.00
2022-08-01T09:28:13.794Z,15260.00
2022-08-01T09:29:13.753Z,11960.00
2022-08-01T09:30:13.978Z,11032.00
2022-08-01T09:31:13.689Z,11584.00
2022-08-01T09:32:16.412Z,13096.00
2022-08-01T09:33:21.503Z,15064.00
2022-08-01T09:34:13.587Z,19104.00
2022-08-01T09:35:13.556Z,28064.00
2022-08-01T09:36:13.523Z,40736.00
2022-08-01T09:37:13.500Z,39968.00
2022-08-01T09:38:13.461Z,25472.00
2022-08-01T09:39:13.425Z,24768.00
2022-08-01T09:40:13.393Z,35776.00
2022-08-01T09:41:14.267Z,29856.00
2022-08-01T09:42:13.343Z,24128.00
2022-08-01T09:43:14.863Z,22048.00
2022-08-01T09:44:13.263Z,22080.00
2022-08-01T09:45:23.330Z,25632.00
2022-08-01T09:46:13.201Z,26336.00
2022-08-01T09:47:15.366Z,32256.00
2022-08-01T09:48:13.145Z,37760.00
2022-08-01T09:49:13.204Z,29984.00
2022-08-01T09:50:13.073Z,33504.00
2022-08-01T09:51:13.059Z,32800.00
2022-08-01T09:52:13.012Z,28224.00
2022-08-01T09:53:30.238Z,27008.00
2022-08-01T09:54:12.946Z,25088.00
2022-08-01T09:55:12.915Z,25184.00
2022-08-01T09:56:12.887Z,22048.00
2022-08-01T09:57:12.858Z,22880.00
2022-08-01T09:58:12.829Z,32224.00
2022-08-01T09:59:12.793Z,41920.00
2022-08-01T10:00:24.243Z,42656.00
2022-08-01T10:01:12.728Z,37664.00
2022-08-01T10:02:12.701Z,32416.00
2022-08-01T10:03:12.751Z,31136.00
2022-08-01T10:04:12.664Z,25728.00
2022-08-01T10:05:20.921Z,20896.00
2022-08-01T10:06:12.574Z,20192.00
2022-08-01T10:07:12.542Z,30752.00
2022-08-01T10:08:12.512Z,41184.00
2022-08-01T10:09:12.492Z,38880.00
2022-08-01T10:10:12.453Z,21344.00
2022-08-01T10:11:12.545Z,14244.00
2022-08-01T10:12:15.985Z,15876.00
2022-08-01T10:13:12.361Z,31904.00
2022-08-01T10:14:12.343Z,26144.00
2022-08-01T10:15:12.316Z,28320.00
2022-08-01T10:16:12.355Z,33632.00
2022-08-01T10:17:12.238Z,27296.00
2022-08-01T10:18:16.584Z,35776.00
2022-08-01T10:19:15.509Z,23680.00
2022-08-01T10:20:28.838Z,21504.00
2022-08-01T10:21:12.130Z,23072.00
2022-08-01T10:22:12.089Z,20224.00
2022-08-01T10:23:12.060Z,37376.00
2022-08-01T10:24:12.031Z,40768.00
2022-08-01T10:25:12.014Z,43488.00
2022-08-01T10:26:11.971Z,38208.00
2022-08-01T10:27:12.711Z,26240.00
2022-08-01T10:28:11.913Z,42048.00
2022-08-01T10:29:24.353Z,42368.00
2022-08-01T10:30:19.447Z,43712.00
2022-08-01T10:31:12.534Z,43840.00
2022-08-01T10:32:11.796Z,43744.00
2022-08-01T10:33:11.781Z,43072.00
2022-08-01T10:34:11.737Z,21024.00
2022-08-01T10:35:15.073Z,15484.00
2022-08-01T10:36:11.682Z,14964.00
2022-08-01T10:37:11.657Z,15576.00
2022-08-01T10:38:13.741Z,17824.00
2022-08-01T10:39:11.607Z,22624.00
2022-08-01T10:40:29.215Z,43360.00
2022-08-01T10:41:11.539Z,39744.00
2022-08-01T10:42:15.658Z,38816.00
2022-08-01T10:43:11.481Z,46624.00
2022-08-01T10:44:11.453Z,46688.00
2022-08-01T10:45:11.439Z,47744.00
2022-08-01T10:46:11.394Z,42944.00
2022-08-01T10:47:11.371Z,32096.00
2022-08-01T10:48:11.339Z,13192.00
2022-08-01T10:49:11.326Z,11588.00
2022-08-01T10:50:11.280Z,11732.00
2022-08-01T10:51:17.861Z,12332.00
2022-08-01T10:52:11.234Z,11552.00
2022-08-01T10:53:16.011Z,12284.00
2022-08-01T10:54:11.168Z,15072.00
2022-08-01T10:55:11.140Z,18688.00
2022-08-01T10:56:13.181Z,19392.00
2022-08-01T10:57:11.080Z,17152.00
2022-08-01T10:58:11.052Z,14828.00
2022-08-01T10:59:11.817Z,15500.00
2022-08-01T11:00:10.988Z,16652.00
2022-08-01T11:01:11.021Z,19328.00
2022-08-01T11:02:10.954Z,21024.00
2022-08-01T11:03:10.901Z,24928.00
2022-08-01T11:04:16.014Z,24384.00
2022-08-01T11:05:10.839Z,35168.00
2022-08-01T11:06:10.821Z,23456.00
2022-08-01T11:07:11.128Z,23936.00
2022-08-01T11:08:10.778Z,29824.00
2022-08-01T11:09:10.715Z,42176.00
2022-08-01T11:10:14.878Z,49536.00
2022-08-01T11:11:10.652Z,22816.00
2022-08-01T11:12:13.641Z,19872.00
2022-08-01T11:13:10.590Z,19520.00
2022-08-01T11:14:10.686Z,21504.00
2022-08-01T11:15:10.537Z,21760.00
2022-08-01T11:16:16.410Z,20128.00
2022-08-01T11:17:10.465Z,38912.00
2022-08-01T11:18:10.434Z,21568.00
2022-08-01T11:19:10.405Z,21600.00
2022-08-01T11:20:10.383Z,27264.00
2022-08-01T11:21:58.606Z,24896.00
2022-08-01T11:22:10.310Z,25696.00
2022-08-01T11:23:10.280Z,23072.00
2022-08-01T11:24:10.247Z,19808.00
2022-08-01T11:25:10.217Z,19584.00
2022-08-01T11:26:10.696Z,18752.00
2022-08-01T11:27:10.156Z,27552.00
2022-08-01T11:28:14.824Z,22592.00
2022-08-01T11:29:19.897Z,34368.00
2022-08-01T11:30:12.894Z,35744.00
2022-08-01T11:31:11.300Z,35872.00
2022-08-01T11:32:09.999Z,34272.00
2022-08-01T11:33:10.399Z,28672.00
2022-08-01T11:34:09.935Z,26592.00
2022-08-01T11:35:09.904Z,35968.00
2022-08-01T11:36:09.876Z,38080.00
2022-08-01T11:37:10.215Z,39264.00
2022-08-01T11:38:09.811Z,39808.00
2022-08-01T11:39:13.546Z,37696.00
2022-08-01T11:40:09.754Z,35648.00
2022-08-01T11:41:09.723Z,37536.00
2022-08-01T11:42:09.692Z,35936.00
2022-08-01T11:43:09.672Z,35808.00
2022-08-01T11:44:09.636Z,33760.00
2022-08-01T11:45:09.604Z,31872.00
2022-08-01T11:46:09.605Z,31456.00
2022-08-01T11:47:10.607Z,33632.00
2022-08-01T11:48:10.168Z,28608.00
2022-08-01T11:49:09.540Z,23456.00
2022-08-01T11:50:09.456Z,24000.00
2022-08-01T11:51:09.428Z,25696.00
2022-08-01T11:52:09.401Z,28576.00
2022-08-01T11:53:09.370Z,40192.00
2022-08-01T11:54:09.344Z,41792.00
2022-08-01T11:55:10.369Z,43552.00
2022-08-01T11:56:09.286Z,43136.00
2022-08-01T11:57:10.220Z,40704.00
2022-08-01T11:58:22.250Z,41856.00
2022-08-01T11:59:15.079Z,44160.00
2022-08-01T12:00:09.256Z,38112.00
2022-08-01T12:01:09.218Z,47136.00
2022-08-01T12:02:09.164Z,24064.00
2022-08-01T12:03:09.092Z,21152.00
2022-08-01T12:04:09.062Z,19968.00
2022-08-01T12:05:11.640Z,19360.00
2022-08-01T12:06:09.008Z,18400.00
2022-08-01T12:07:09.203Z,16960.00
2022-08-01T12:08:08.947Z,15924.00
2022-08-01T12:09:12.046Z,15656.00
2022-08-01T12:10:08.890Z,14988.00
2022-08-01T12:11:08.879Z,15576.00
2022-08-01T12:12:08.839Z,17568.00
2022-08-01T12:13:08.802Z,19296.00
2022-08-01T12:14:08.773Z,17248.00
2022-08-01T12:15:10.132Z,18944.00
2022-08-01T12:16:08.806Z,24736.00
2022-08-01T12:17:09.088Z,23456.00
2022-08-01T12:18:08.913Z,42752.00
2022-08-01T12:19:11.751Z,44128.00
2022-08-01T12:20:08.590Z,23040.00